Flight Track Log - Related Links

Times and Time Zones

All times are in EDT time to prevent confusion due to time zone crossing. See the C-GUFZ flight status page for this flight to view local times or setup timezone preferences in your user account.

Time Position Orientation Groundspeed Altitude Reporting Facility
EDT Latitude Longitude Course Direction KTS MPH feet Rate Location/Type
Wed 04:57:36 PM 49.2000 -122.7333 270° West 60 69 100  Level Vancouver Center
Wed 04:58:36 PM 49.2000 -122.7500 270° West 90 104 1,100 900 Climbing Vancouver Center
Wed 04:59:36 PM 49.1833 -122.7333 147° Southeast 110 127 1,900 800 Climbing Vancouver Center
Wed 05:00:36 PM 49.1833 -122.6833 90° East 130 150 2,700 700 Climbing Vancouver Center
Wed 05:01:36 PM 49.1500 -122.6500 147° Southeast 140 161 3,300 600 Climbing Vancouver Center
Wed 05:02:36 PM 49.1167 -122.6500 180° South 140 161 3,900 350 Climbing Vancouver Center
Wed 05:03:36 PM 49.0667 -122.6333 168° South 150 173 4,000 50 Climbing Vancouver Center
Wed 05:04:36 PM 49.0333 -122.6000 147° Southeast 160 184 4,000  Level Vancouver Center
Wed 05:05:36 PM 49.0000 -122.6333 213° Southwest 160 184 4,000  Level Vancouver Center
Wed 05:06:36 PM 48.9500 -122.6833 213° Southwest 160 184 4,000 100 Level Vancouver Center
Wed 05:07:36 PM 48.9333 -122.7333 243° Southwest 160 184 4,200 550 Climbing Vancouver Center
Wed 05:08:36 PM 48.9000 -122.7667 213° Southwest 150 173 5,100 800 Climbing Vancouver Center
Wed 05:09:36 PM 48.8667 -122.8167 225° Southwest 140 161 5,800 450 Climbing Vancouver Center
Wed 05:10:36 PM 48.8500 -122.8833 249° West 160 184 6,000 100 Climbing Vancouver Center
Wed 05:11:36 PM 48.8333 -122.9333 243° Southwest 170 196 6,000  Level Vancouver Center
Wed 05:12:36 PM 48.8167 -123.0167 253° West 170 196 6,000  Level Vancouver Center
Wed 05:13:36 PM 48.8000 -123.0833 249° West 170 196 6,000 -150 Level Vancouver Center
Wed 05:14:36 PM 48.7833 -123.1667 253° West 170 196 5,700 -500 Descending Vancouver Center
Wed 05:15:36 PM 48.7833 -123.2500 270° West 180 207 5,000 -650 Descending Vancouver Center
Wed 05:16:36 PM 48.7833 -123.3167 270° West 190 219 4,400 -500 Descending Vancouver Center
Wed 05:17:36 PM 48.7667 -123.4000 253° West 180 207 4,000 -200 Descending Vancouver Center
Wed 05:18:36 PM 48.7667 -123.4500 270° West 170 196 4,000  Level Vancouver Center
Wed 05:19:36 PM 48.7667 -123.5167 270° West 160 184 4,000 -100 Level Vancouver Center
Wed 05:20:36 PM 48.7500 -123.6000 253° West 170 196 3,800 -400 Descending Vancouver Center
Wed 05:21:36 PM 48.7333 -123.6500 243° Southwest 160 184 3,200 -400 Descending Vancouver Center
Wed 05:22:36 PM 48.7000 -123.6500 180° South 140 161 3,000 -150 Descending Vancouver Center
Wed 05:23:36 PM 48.6667 -123.6500 180° South 120 138 2,900 -300 Descending Vancouver Center
Wed 05:24:36 PM 48.6667 -123.6000 90° East 140 161 2,400 -700 Descending Vancouver Center
Wed 05:25:36 PM 48.6500 -123.5500 117° Southeast 140 161 1,500 -750 Descending Vancouver Center
Wed 05:26:36 PM 48.6333 -123.5000 117° Southeast 110 127 900 -550 Descending Vancouver Center
Wed 05:27:36 PM 48.6333 -123.4500 90° East 100 115 400 -50 Descending Vancouver Center
Wed 05:28:36 PM 48.6333 -123.4167 90° East 110 127 800 600 Climbing Vancouver Center
Wed 05:29:36 PM 48.6167 -123.3667 117° Southeast 130 150 1,600 800 Climbing Vancouver Center
Wed 05:30:36 PM 48.6000 -123.3167 117° Southeast 130 150 2,400 650 Climbing Vancouver Center
Wed 05:31:36 PM 48.6333 -123.3000 18° North 140 161 2,900 500 Climbing Vancouver Center
Wed 05:32:36 PM 48.6667 -123.3000 360° North 160 184 3,400 500 Climbing Vancouver Center
Wed 05:33:36 PM 48.7167 -123.3000 360° North 160 184 3,900 300 Climbing Vancouver Center
Wed 05:34:36 PM 48.7500 -123.3500 315° West 170 196 4,000 50 Climbing Vancouver Center
Wed 05:35:36 PM 48.7500 -123.4167 270° West 170 196 4,000  Level Vancouver Center
Wed 05:36:36 PM 48.7500 -123.5000 270° West 170 196 4,000  Level Vancouver Center
Wed 05:37:36 PM 48.7500 -123.5667 270° West 160 184 4,000  Level Vancouver Center
Wed 05:38:36 PM 48.7500 -123.6167 270° West 160 184 4,000 -300 Level Vancouver Center
Wed 05:39:36 PM 48.7167 -123.6500 213° Southwest 150 173 3,400 -450 Descending Vancouver Center
Wed 05:40:36 PM 48.6833 -123.6667 198° South 150 173 3,100 -300 Descending Vancouver Center
Wed 05:41:36 PM 48.6667 -123.6167 117° Southeast 120 138 2,800 -400 Descending Vancouver Center
Wed 05:42:36 PM 48.6500 -123.5667 117° Southeast 110 127 2,300 -700 Descending Vancouver Center
Wed 05:43:36 PM 48.6500 -123.5167 90° East 100 115 1,400 -700 Descending Vancouver Center
Wed 05:44:36 PM 48.6333 -123.5000 147° Southeast 90 104 900 -500 Descending Vancouver Center
Wed 05:45:36 PM 48.6333 -123.4500 90° East 90 104 400 50 Descending Vancouver Center
Wed 05:46:36 PM 48.6333 -123.4167 90° East 100 115 1,000 650 Climbing Vancouver Center
Wed 05:47:36 PM 48.6167 -123.3667 117° Southeast 110 127 1,700 800 Climbing Vancouver Center
Wed 05:48:36 PM 48.6167 -123.3167 90° East 120 138 2,600 600 Climbing Vancouver Center
Wed 05:49:36 PM 48.6167 -123.3000 90° East 140 161 2,900 200 Climbing Vancouver Center
Wed 05:50:36 PM 48.6667 -123.2667 24° Northeast 160 184 3,000 50 Climbing Vancouver Center
Wed 05:51:36 PM 48.7000 -123.2167 45° Northeast 160 184 3,000 350 Level Vancouver Center
Wed 05:52:36 PM 48.7167 -123.1667 63° Northeast 150 173 3,700 800 Climbing Vancouver Center
Wed 05:53:36 PM 48.7333 -123.1167 63° Northeast 140 161 4,600 650 Climbing Vancouver Center
Wed 05:54:36 PM 48.7500 -123.0667 63° Northeast 140 161 5,000 200 Climbing Vancouver Center
Wed 05:55:36 PM 48.7833 -123.0167 45° Northeast 160 184 5,000  Level Vancouver Center
Wed 05:56:36 PM 48.8000 -122.9333 73° East 160 184 5,000  Level Vancouver Center
Wed 05:57:36 PM 48.8167 -122.8833 63° Northeast 160 184 5,000  Level Vancouver Center
Wed 05:58:36 PM 48.8333 -122.8333 63° Northeast 160 184 5,000  Level Vancouver Center
Wed 05:59:36 PM 48.8667 -122.7667 53° Northeast 160 184 5,000  Level Vancouver Center
Wed 06:00:36 PM 48.8833 -122.7000 69° East 160 184 5,000  Level Vancouver Center
Wed 06:01:36 PM 48.9000 -122.6500 63° Northeast 150 173 5,000  Level Vancouver Center
Wed 06:02:36 PM 48.9167 -122.6000 63° Northeast 150 173 5,000  Level Vancouver Center
Wed 06:03:36 PM 48.9167 -122.5500 90° East 140 161 5,000  Level Vancouver Center
Wed 06:04:36 PM 48.9000 -122.5833 233° Southwest 140 161 5,000  Level Vancouver Center
Wed 06:05:36 PM 48.8833 -122.6333 243° Southwest 150 173 5,000  Level Vancouver Center
Wed 06:06:36 PM 48.9167 -122.6333 360° North 140 161 5,000  Level Vancouver Center
Wed 06:07:36 PM 48.9333 -122.5833 63° Northeast 140 161 5,000 -50 Level Vancouver Center
Wed 06:08:36 PM 48.9167 -122.5500 127° Southeast 120 138 4,900 -450 Descending Vancouver Center
Wed 06:09:36 PM 48.9000 -122.6000 243° Southwest 160 184 4,100 -700 Descending Vancouver Center
Wed 06:10:36 PM 48.9000 -122.6833 270° West 160 184 3,500 -550 Descending Vancouver Center
Wed 06:11:36 PM 48.9000 -122.7333 270° West 150 173 3,000 -250 Descending Vancouver Center
Wed 06:12:36 PM 48.9333 -122.7500 342° North 130 150 3,000  Level Vancouver Center
Wed 06:13:36 PM 48.9667 -122.7000 45° Northeast 120 138 3,000  Level Vancouver Center
Wed 06:14:36 PM 48.9833 -122.6833 33° Northeast 120 138 3,000 -100 Level Vancouver Center
Wed 06:15:36 PM 48.9833 -122.6333 90° East 120 138 2,800 -350 Descending Vancouver Center
Wed 06:16:36 PM 49.0000 -122.5833 63° Northeast 100 115 2,300 -500 Descending Vancouver Center
Wed 06:17:36 PM 49.0000 -122.5500 90° East 100 115 1,800 -350 Descending Vancouver Center
Wed 06:18:36 PM 49.0000 -122.5000 90° East 90 104 1,600 -200 Descending Vancouver Center
Wed 06:19:36 PM 49.0000 -122.4500 90° East 100 115 1,400 -300 Descending Vancouver Center
Wed 06:20:36 PM 49.0000 -122.4333 90° East 100 115 1,000 -250 Descending Vancouver Center
Wed 06:21:36 PM 49.0000 -122.3667 90° East 100 115 900 100 Descending Vancouver Center
Wed 06:22:36 PM 49.0000 -122.3500 90° East 100 115 1,200 650 Climbing Vancouver Center
Wed 06:23:36 PM 48.9833 -122.3833 233° Southwest 120 138 2,200 800 Climbing Vancouver Center
Wed 06:24:36 PM 48.9667 -122.4333 243° Southwest 130 150 2,800 400 Climbing Vancouver Center
Wed 06:25:36 PM 48.9333 -122.5000 233° Southwest 150 173 3,000 100 Climbing Vancouver Center
Wed 06:26:36 PM 48.9333 -122.5500 270° West 150 173 3,000 -250 Level Vancouver Center
Wed 06:27:36 PM 48.9333 -122.6333 270° West 160 184 2,500 -450 Descending Vancouver Center
Wed 06:28:36 PM 48.9667 -122.6500 342° North 150 173 2,100 -300 Descending Vancouver Center
Wed 06:29:36 PM 48.9833 -122.6000 63° Northeast 150 173 1,900 -250 Descending Vancouver Center
Wed 06:30:36 PM 49.0000 -122.5500 63° Northeast 130 150 1,600 -150 Descending Vancouver Center
Wed 06:31:36 PM 49.0000 -122.5000 90° East 120 138 1,600 -50 Level Vancouver Center
Wed 06:32:36 PM 49.0000 -122.4500 90° East 120 138 1,500 -233 Descending Vancouver Center
Wed 06:34:36 PM 49.0000 -122.3667 90° East 100 115 900 33 Descending Vancouver Center
Wed 06:35:36 PM 48.9833 -122.3833 213° Southwest 100 115 1,600 1,000 Climbing Vancouver Center
Wed 06:36:36 PM 48.9667 -122.4333 243° Southwest 130 150 2,900 650 Climbing Vancouver Center
Wed 06:37:36 PM 48.9500 -122.4833 243° Southwest 140 161 2,900 100 Level Vancouver Center
Wed 06:38:36 PM 48.9833 -122.5000 342° North 150 173 3,100 50 Climbing Vancouver Center
Wed 06:39:36 PM 49.0167 -122.5500 315° West 150 173 3,000 -50 Descending Vancouver Center
Wed 06:40:36 PM 49.0667 -122.5833 336° Northwest 150 173 3,000  Level Vancouver Center
Wed 06:41:36 PM 49.1000 -122.5833 360° North 140 161 3,000 -50 Level Vancouver Center
Wed 06:42:36 PM 49.1333 -122.5667 18° North 130 150 2,900 -400 Descending Vancouver Center
Wed 06:43:36 PM 49.1667 -122.6000 327° Northwest 120 138 2,200 -800 Descending Vancouver Center
Wed 06:44:36 PM 49.1833 -122.6167 327° Northwest 120 138 1,300 -800 Descending Vancouver Center
Wed 06:45:36 PM 49.2000 -122.6833 291° West 100 115 600 -600 Descending Vancouver Center
Wed 06:46:36 PM 49.2000 -122.7000 270° West 80 92 100 -500 Descending Vancouver Center

Login

Don't have an account? Register now (free) for customized features, flight alerts, and more!